createdAt,value
2022-11-23T00:01:19.505Z,99579.03
2022-11-23T00:03:47.672Z,99578.00
2022-11-23T00:06:15.107Z,99577.50
2022-11-23T00:08:41.700Z,99584.47
2022-11-23T00:11:08.815Z,99584.47
2022-11-23T00:13:35.522Z,99568.84
2022-11-23T00:16:05.867Z,99589.72
2022-11-23T00:18:32.496Z,99583.44
2022-11-23T00:20:59.152Z,99581.06
2022-11-23T00:23:25.720Z,99589.91
2022-11-23T00:25:52.215Z,99581.56
2022-11-23T00:28:21.232Z,99594.00
2022-11-23T00:30:50.818Z,99586.34
2022-11-23T00:33:17.892Z,99560.53
2022-11-23T00:35:44.965Z,99590.78
2022-11-23T00:38:13.838Z,99600.44
2022-11-23T00:40:40.416Z,99601.31
2022-11-23T00:43:06.948Z,99604.03
2022-11-23T00:45:33.482Z,99610.31
2022-11-23T00:48:00.041Z,99612.19
2022-11-23T00:50:26.634Z,99606.06
2022-11-23T00:52:55.401Z,99608.94
2022-11-23T00:55:21.969Z,99596.03
2022-11-23T00:57:48.562Z,99600.97
2022-11-23T01:00:16.566Z,99596.88
2022-11-23T01:02:43.131Z,99614.59
2022-11-23T01:05:10.108Z,99605.03
2022-11-23T01:07:36.786Z,99608.09
2022-11-23T01:10:03.633Z,99596.56
2022-11-23T01:12:30.220Z,99618.97
2022-11-23T01:14:56.900Z,99605.03
2022-11-23T01:17:23.495Z,99610.81
2022-11-23T01:19:50.252Z,99622.22
2022-11-23T01:22:20.304Z,99600.44
2022-11-23T01:24:49.157Z,99615.94
2022-11-23T01:27:15.817Z,99612.38
2022-11-23T01:29:42.347Z,99621.53
2022-11-23T01:32:08.834Z,99609.47
2022-11-23T01:34:37.717Z,99595.00
2022-11-23T01:37:06.450Z,99611.81
2022-11-23T01:39:35.211Z,99629.69
2022-11-23T01:42:01.800Z,99617.63
2022-11-23T01:44:33.997Z,99630.19
2022-11-23T01:47:05.900Z,99632.06
2022-11-23T01:49:39.632Z,99638.19
2022-11-23T01:52:19.952Z,99632.56
2022-11-23T01:54:55.834Z,99645.84
2022-11-23T01:57:32.684Z,99638.03
2022-11-23T01:59:59.198Z,99628.19
2022-11-23T02:02:29.051Z,99629.84
2022-11-23T02:05:00.673Z,99640.75
2022-11-23T02:07:29.151Z,99648.56
2022-11-23T02:09:55.992Z,99650.28
2022-11-23T02:12:25.722Z,99654.84
2022-11-23T02:14:52.378Z,99644.47
2022-11-23T02:17:19.354Z,99658.44
2022-11-23T02:19:57.137Z,99663.53
2022-11-23T02:22:32.482Z,99629.66
2022-11-23T02:25:02.445Z,99650.78
2022-11-23T02:27:29.540Z,99655.00
2022-11-23T02:29:58.907Z,99651.28
2022-11-23T02:32:25.756Z,99660.09
2022-11-23T02:34:54.563Z,99654.50
2022-11-23T02:37:21.143Z,99654.50
2022-11-23T02:39:55.608Z,99651.94
2022-11-23T02:42:24.052Z,99663.53
2022-11-23T02:45:19.046Z,99658.78
2022-11-23T02:47:45.602Z,99663.00
2022-11-23T02:50:12.167Z,99650.78
2022-11-23T02:52:41.229Z,99661.84
2022-11-23T02:55:08.195Z,99665.94
2022-11-23T02:57:35.444Z,99649.56
2022-11-23T03:00:02.085Z,99667.44
2022-11-23T03:02:28.780Z,99670.34
2022-11-23T03:04:55.444Z,99669.16
2022-11-23T03:07:22.108Z,99662.16
2022-11-23T03:09:48.669Z,99669.16
2022-11-23T03:12:16.418Z,99670.00
2022-11-23T03:14:42.968Z,99671.00
2022-11-23T03:17:09.473Z,99676.81
2022-11-23T03:19:36.046Z,99678.66
2022-11-23T03:22:03.567Z,99675.94
2022-11-23T03:24:30.152Z,99676.44
2022-11-23T03:26:56.786Z,99677.66
2022-11-23T03:29:26.408Z,99685.66
2022-11-23T03:31:54.182Z,99684.09
2022-11-23T03:34:23.825Z,99679.53
2022-11-23T03:36:50.399Z,99684.09
2022-11-23T03:39:16.970Z,99675.94
2022-11-23T03:41:45.813Z,99683.59
2022-11-23T03:44:14.554Z,99680.03
2022-11-23T03:46:41.132Z,99674.09
2022-11-23T03:49:07.658Z,99680.88
2022-11-23T03:51:34.227Z,99658.44
2022-11-23T03:54:03.175Z,99672.72
2022-11-23T03:56:29.753Z,99674.94
2022-11-23T03:58:58.743Z,99671.53
2022-11-23T04:01:25.956Z,99682.41
2022-11-23T04:03:52.657Z,99670.81
2022-11-23T04:06:19.300Z,99676.09
2022-11-23T04:08:45.996Z,99683.25
2022-11-23T04:11:14.968Z,99684.91
2022-11-23T04:13:41.722Z,99683.59
2022-11-23T04:16:08.323Z,99682.75
2022-11-23T04:18:34.934Z,99681.38
2022-11-23T04:21:01.725Z,99692.59
2022-11-23T04:23:28.280Z,99690.75
2022-11-23T04:25:54.872Z,99671.00
2022-11-23T04:28:21.459Z,99682.41
2022-11-23T04:30:48.119Z,99685.47
2022-11-23T04:33:14.655Z,99690.59
2022-11-23T04:35:41.190Z,99692.09
2022-11-23T04:38:07.828Z,99689.38
2022-11-23T04:40:37.086Z,99675.59
2022-11-23T04:43:04.018Z,99691.25
2022-11-23T04:45:30.585Z,99676.97
2022-11-23T04:47:57.215Z,99684.28
2022-11-23T04:50:26.017Z,99690.06
2022-11-23T04:52:52.922Z,99688.03
2022-11-23T04:55:22.069Z,99688.38
2022-11-23T04:57:48.552Z,99677.16
2022-11-23T05:00:15.873Z,99686.66
2022-11-23T05:02:42.530Z,99675.25
2022-11-23T05:05:09.307Z,99668.81
2022-11-23T05:07:38.169Z,99677.81
2022-11-23T05:10:05.333Z,99675.09
2022-11-23T05:12:34.261Z,99669.66
2022-11-23T05:15:04.305Z,99684.09
2022-11-23T05:17:33.692Z,99678.16
2022-11-23T05:20:00.277Z,99661.66
2022-11-23T05:22:28.888Z,99679.69
2022-11-23T05:24:55.691Z,99676.09
2022-11-23T05:27:22.277Z,99675.59
2022-11-23T05:29:48.839Z,99672.53
2022-11-23T05:32:15.496Z,99683.09
2022-11-23T05:34:48.015Z,99675.44
2022-11-23T05:37:16.775Z,99688.00
2022-11-23T05:39:43.401Z,99681.03
2022-11-23T05:42:10.484Z,99678.63
2022-11-23T05:44:37.053Z,99680.19
2022-11-23T05:47:05.656Z,99677.63
2022-11-23T05:49:32.525Z,99680.53
2022-11-23T05:51:59.217Z,99678.28
2022-11-23T05:54:26.742Z,99685.41
2022-11-23T05:56:53.292Z,99679.97
2022-11-23T05:59:19.810Z,99682.19
2022-11-23T06:01:46.352Z,99696.84
2022-11-23T06:04:13.465Z,99690.53
2022-11-23T06:06:40.114Z,99689.69
2022-11-23T06:09:06.649Z,99685.25
2022-11-23T06:11:33.291Z,99676.59
2022-11-23T06:13:59.857Z,99691.91
2022-11-23T06:16:26.476Z,99700.06
2022-11-23T06:18:55.471Z,99691.06
2022-11-23T06:21:22.065Z,99690.19
2022-11-23T06:23:48.656Z,99690.50
2022-11-23T06:26:15.476Z,99683.56
2022-11-23T06:28:42.029Z,99694.28
2022-11-23T06:31:09.956Z,99690.69
2022-11-23T06:33:36.575Z,99696.28
2022-11-23T06:36:03.952Z,99704.09
2022-11-23T06:38:30.562Z,99692.22
2022-11-23T06:41:01.015Z,99689.50
2022-11-23T06:43:28.665Z,99676.56
2022-11-23T06:45:55.954Z,99700.72
2022-11-23T06:48:22.841Z,99682.16
2022-11-23T06:50:49.476Z,99705.44
2022-11-23T06:53:18.239Z,99699.81
2022-11-23T06:55:49.693Z,99719.03
2022-11-23T06:58:16.546Z,99728.72
2022-11-23T07:00:43.072Z,99717.84
2022-11-23T07:03:21.297Z,99719.56
2022-11-23T07:05:48.038Z,99726.16
2022-11-23T07:08:20.320Z,99724.47
2022-11-23T07:11:03.888Z,99736.88
2022-11-23T07:13:34.813Z,99743.19
2022-11-23T07:16:06.791Z,99738.75
2022-11-23T07:18:46.667Z,99741.63
2022-11-23T07:21:15.683Z,99735.84
2022-11-23T07:23:42.231Z,99747.41
2022-11-23T07:26:09.355Z,99761.69
2022-11-23T07:28:36.039Z,99740.53
2022-11-23T07:31:02.624Z,99755.56
2022-11-23T07:33:31.315Z,99751.13
2022-11-23T07:36:02.594Z,99747.41
2022-11-23T07:38:32.440Z,99754.75
2022-11-23T07:41:01.115Z,99758.50
2022-11-23T07:43:27.696Z,99767.53
2022-11-23T07:45:56.650Z,99770.56
2022-11-23T07:48:23.555Z,99772.97
2022-11-23T07:50:53.920Z,99777.22
2022-11-23T07:53:21.101Z,99781.53
2022-11-23T07:55:47.745Z,99787.16
2022-11-23T07:58:14.434Z,99785.09
2022-11-23T08:00:41.163Z,99774.56
2022-11-23T08:03:27.421Z,99791.06
2022-11-23T08:05:54.653Z,99782.19
2022-11-23T08:08:21.246Z,99789.47
2022-11-23T08:10:52.892Z,99795.03
2022-11-23T08:13:21.447Z,99786.53
2022-11-23T08:15:55.037Z,99797.41
2022-11-23T08:18:23.593Z,99798.56
2022-11-23T08:20:57.896Z,99797.88
2022-11-23T08:23:27.926Z,99805.34
2022-11-23T08:25:56.489Z,99802.09
2022-11-23T08:28:26.955Z,99803.28
2022-11-23T08:31:06.369Z,99800.72
2022-11-23T08:33:38.984Z,99794.75
2022-11-23T08:36:12.345Z,99800.34
2022-11-23T08:38:57.672Z,99792.19
2022-11-23T08:41:24.573Z,99803.94
2022-11-23T08:43:53.147Z,99801.38
2022-11-23T08:46:41.544Z,99796.63
2022-11-23T08:49:09.381Z,99793.06
2022-11-23T08:51:42.484Z,99799.34
2022-11-23T08:57:06.106Z,99782.34
2022-11-23T08:59:36.852Z,99781.31
2022-11-23T09:02:08.896Z,99788.47
2022-11-23T09:04:39.908Z,99785.06
2022-11-23T09:07:09.933Z,99788.47
2022-11-23T09:09:37.201Z,99789.16
2022-11-23T09:12:09.938Z,99796.97
2022-11-23T09:14:37.263Z,99795.66
2022-11-23T09:17:11.678Z,99788.91
2022-11-23T09:19:43.233Z,99788.28
2022-11-23T09:22:13.281Z,99787.84
2022-11-23T09:24:39.848Z,99774.09
2022-11-23T09:27:06.575Z,99767.31
2022-11-23T09:29:37.647Z,99774.47
2022-11-23T09:32:04.323Z,99760.69
2022-11-23T09:34:31.234Z,99765.63
2022-11-23T09:36:58.263Z,99770.53
2022-11-23T09:39:25.529Z,99760.69
2022-11-23T09:41:52.100Z,99751.31
2022-11-23T09:44:36.755Z,99752.69
2022-11-23T09:47:40.715Z,99753.34
2022-11-23T09:50:07.184Z,99752.00
2022-11-23T09:52:36.648Z,99739.06
2022-11-23T09:55:33.992Z,99729.19
2022-11-23T09:58:04.852Z,99732.94
2022-11-23T10:00:43.292Z,99728.66
2022-11-23T10:03:16.093Z,99729.53
2022-11-23T10:05:48.049Z,99728.81
2022-11-23T10:08:33.305Z,99724.91
2022-11-23T10:11:35.368Z,99725.41
2022-11-23T10:14:13.701Z,99721.34
2022-11-23T10:17:17.577Z,99719.78
2022-11-23T10:20:13.932Z,99708.53
2022-11-23T10:22:59.805Z,99707.00
2022-11-23T10:25:37.603Z,99698.13
2022-11-23T10:28:19.032Z,99724.00
2022-11-23T10:30:53.858Z,99711.03
2022-11-23T10:33:45.425Z,99703.03
2022-11-23T10:36:17.240Z,99710.81
2022-11-23T10:38:45.265Z,99716.97
2022-11-23T10:41:16.996Z,99717.94
2022-11-23T10:44:12.518Z,99712.28
2022-11-23T10:46:40.600Z,99707.13
2022-11-23T10:49:30.260Z,99714.06
2022-11-23T10:52:05.547Z,99710.47
2022-11-23T10:54:40.400Z,99699.72
2022-11-23T10:57:33.231Z,99699.00
2022-11-23T11:00:22.099Z,99691.78
2022-11-23T11:02:55.504Z,99685.47
2022-11-23T11:06:08.248Z,99693.63
2022-11-23T11:08:21.110Z,99683.94
2022-11-23T11:11:01.417Z,99692.03
2022-11-23T11:13:31.730Z,99684.19
2022-11-23T11:16:06.985Z,99682.97
2022-11-23T11:18:36.398Z,99673.34
2022-11-23T11:21:08.049Z,99657.81
2022-11-23T11:23:40.130Z,99669.53
2022-11-23T11:26:18.468Z,99657.53
2022-11-23T11:28:53.023Z,99662.53
2022-11-23T11:31:34.868Z,99668.88
2022-11-23T11:34:25.381Z,99662.34
2022-11-23T11:37:09.921Z,99647.31
2022-11-23T11:39:51.235Z,99641.38
2022-11-23T11:42:33.476Z,99652.75
2022-11-23T11:45:03.216Z,99631.94
2022-11-23T11:47:47.185Z,99634.13
2022-11-23T11:50:41.981Z,99623.44
2022-11-23T11:53:15.246Z,99621.00
2022-11-23T11:55:51.152Z,99614.81
2022-11-23T11:58:18.395Z,99614.69
2022-11-23T12:00:48.841Z,99600.19
2022-11-23T12:03:33.473Z,99601.03
2022-11-23T12:06:11.571Z,99609.78
2022-11-23T12:08:51.806Z,99603.31
2022-11-23T12:11:19.680Z,99595.19
2022-11-23T12:13:47.030Z,99593.13
2022-11-23T12:16:16.581Z,99602.09
2022-11-23T12:18:52.141Z,99614.72
2022-11-23T12:21:18.709Z,99606.78
2022-11-23T12:23:55.329Z,99602.84
2022-11-23T12:26:42.461Z,99603.00
2022-11-23T12:29:34.011Z,99576.91
2022-11-23T12:32:06.937Z,99594.72
2022-11-23T12:34:42.768Z,99590.09
2022-11-23T12:37:21.461Z,99573.41
2022-11-23T12:39:56.418Z,99576.16
2022-11-23T12:42:54.961Z,99577.66
2022-11-23T12:45:56.417Z,99578.81
2022-11-23T12:48:29.051Z,99585.91
2022-11-23T12:51:00.709Z,99584.38
2022-11-23T12:53:35.927Z,99576.75
2022-11-23T12:56:43.505Z,99581.72
2022-11-23T12:59:15.221Z,99578.72
2022-11-23T13:01:49.787Z,99569.44
2022-11-23T13:04:54.016Z,99564.59
2022-11-23T13:07:53.304Z,99552.13
2022-11-23T13:10:27.833Z,99551.16
2022-11-23T13:13:15.863Z,99558.13
2022-11-23T13:16:18.879Z,99567.34
2022-11-23T13:19:17.530Z,99571.53
2022-11-23T13:21:46.664Z,99583.50
2022-11-23T13:24:43.033Z,99572.47
2022-11-23T13:27:15.450Z,99580.41
2022-11-23T13:29:51.290Z,99588.91
2022-11-23T13:32:39.468Z,99587.75
2022-11-23T13:35:21.349Z,99599.25
2022-11-23T13:37:57.566Z,99607.16
2022-11-23T13:40:32.937Z,99607.91
2022-11-23T13:43:13.660Z,99610.16
2022-11-23T13:45:43.301Z,99617.72
2022-11-23T13:48:13.324Z,99616.19
2022-11-23T13:50:58.740Z,99616.28
2022-11-23T13:53:32.383Z,99620.44
2022-11-23T13:56:35.439Z,99630.75
2022-11-23T13:59:23.273Z,99632.47
2022-11-23T14:02:06.664Z,99635.19
2022-11-23T14:04:41.397Z,99632.03
2022-11-23T14:07:19.567Z,99619.00
2022-11-23T14:09:55.574Z,99635.88
2022-11-23T14:12:36.660Z,99658.44
2022-11-23T14:15:06.318Z,99643.84
2022-11-23T14:18:00.920Z,99651.50
2022-11-23T14:20:57.782Z,99652.44
2022-11-23T14:23:46.432Z,99666.75
2022-11-23T14:26:28.371Z,99669.09
2022-11-23T14:29:30.402Z,99677.59
2022-11-23T14:32:08.584Z,99670.78
2022-11-23T14:34:38.294Z,99684.50
2022-11-23T14:37:27.208Z,99682.69
2022-11-23T14:39:59.780Z,99686.97
2022-11-23T14:42:29.511Z,99688.03
2022-11-23T14:45:01.705Z,99678.56
2022-11-23T14:47:32.203Z,99700.38
2022-11-23T14:50:01.151Z,99697.19
2022-11-23T14:52:31.518Z,99698.91
2022-11-23T14:55:01.509Z,99703.50
2022-11-23T14:57:42.303Z,99693.88
2022-11-23T15:00:29.789Z,99706.41
2022-11-23T15:03:20.764Z,99699.41
2022-11-23T15:06:03.894Z,99684.28
2022-11-23T15:08:37.817Z,99700.44
2022-11-23T15:11:23.788Z,99713.94
2022-11-23T15:13:52.482Z,99704.06
2022-11-23T15:16:20.682Z,99706.78
2022-11-23T15:18:50.672Z,99688.22
2022-11-23T15:21:26.587Z,99709.84
2022-11-23T15:23:57.424Z,99704.75
2022-11-23T15:26:46.928Z,99701.47
2022-11-23T15:29:56.049Z,99702.41
2022-11-23T15:32:33.786Z,99684.97
2022-11-23T15:35:12.590Z,99700.13
2022-11-23T15:37:50.035Z,99698.13
2022-11-23T15:40:18.835Z,99703.56
2022-11-23T15:42:48.384Z,99697.47
2022-11-23T15:45:59.308Z,99667.53
2022-11-23T15:48:35.369Z,99687.97
2022-11-23T15:51:06.994Z,99701.06
2022-11-23T15:53:49.615Z,99713.53
2022-11-23T15:56:34.518Z,99725.59
2022-11-23T15:59:04.254Z,99737.38
2022-11-23T16:01:31.035Z,99718.28
2022-11-23T16:04:04.595Z,99744.00
2022-11-23T16:06:42.179Z,99728.50
2022-11-23T16:09:54.331Z,99737.00
2022-11-23T16:12:29.849Z,99731.56
2022-11-23T16:15:27.577Z,99759.84
2022-11-23T16:17:54.245Z,99750.81
2022-11-23T16:20:27.095Z,99771.06
2022-11-23T16:22:54.641Z,99781.47
2022-11-23T16:25:31.640Z,99771.59
2022-11-23T16:28:03.966Z,99794.03
2022-11-23T16:30:44.648Z,99759.84
2022-11-23T16:33:17.051Z,99779.59
2022-11-23T16:35:46.310Z,99788.94
2022-11-23T16:38:13.205Z,99801.03
2022-11-23T16:40:40.488Z,99799.00
2022-11-23T16:43:07.322Z,99808.50
2022-11-23T16:45:36.260Z,99814.16
2022-11-23T16:48:03.445Z,99793.53
2022-11-23T16:50:34.613Z,99801.38
2022-11-23T16:53:10.830Z,99807.00
2022-11-23T16:55:43.608Z,99813.63
2022-11-23T16:58:15.645Z,99798.66
2022-11-23T17:00:42.756Z,99817.03
2022-11-23T17:03:19.132Z,99825.38
2022-11-23T17:05:49.068Z,99811.91
2022-11-23T17:08:22.989Z,99830.81
2022-11-23T17:10:50.916Z,99830.81
2022-11-23T17:13:27.732Z,99804.91
2022-11-23T17:15:55.233Z,99833.50
2022-11-23T17:18:22.577Z,99846.78
2022-11-23T17:20:49.501Z,99853.44
2022-11-23T17:23:16.038Z,99862.09
2022-11-23T17:25:44.879Z,99855.63
2022-11-23T17:28:22.764Z,99867.88
2022-11-23T17:30:49.636Z,99877.41
2022-11-23T17:33:16.340Z,99873.81
2022-11-23T17:35:45.506Z,99872.78
2022-11-23T17:38:16.772Z,99875.31
2022-11-23T17:40:43.408Z,99874.44
2022-11-23T17:43:16.202Z,99888.59
2022-11-23T17:45:44.620Z,99887.72
2022-11-23T17:48:15.927Z,99891.63
2022-11-23T17:50:44.817Z,99896.03
2022-11-23T17:53:13.803Z,99909.81
2022-11-23T17:55:40.944Z,99908.44
2022-11-23T17:58:08.062Z,99906.22
2022-11-23T18:00:36.488Z,99885.53
2022-11-23T18:03:03.505Z,99903.63
2022-11-23T18:05:30.495Z,99903.41
2022-11-23T18:07:57.185Z,99920.41
2022-11-23T18:10:24.381Z,99929.22
2022-11-23T18:12:51.113Z,99931.25
2022-11-23T18:15:17.985Z,99939.75
2022-11-23T18:17:47.286Z,99925.72
2022-11-23T18:20:13.975Z,99941.56
2022-11-23T18:22:42.921Z,99953.09
2022-11-23T18:25:09.742Z,99947.44
2022-11-23T18:27:36.337Z,99969.19
2022-11-23T18:30:03.053Z,99967.25
2022-11-23T18:32:34.537Z,99967.56
2022-11-23T18:35:01.099Z,99959.34
2022-11-23T18:37:30.581Z,99959.34
2022-11-23T18:39:59.619Z,99954.81
2022-11-23T18:42:26.328Z,99964.00
2022-11-23T18:44:52.821Z,99970.34
2022-11-23T18:47:19.566Z,99986.34
2022-11-23T18:49:46.086Z,99967.56
2022-11-23T18:52:13.893Z,99988.69
2022-11-23T18:54:40.569Z,99980.94
2022-11-23T18:57:07.918Z,99976.09
2022-11-23T18:59:56.757Z,99982.53
2022-11-23T19:02:21.026Z,100011.13
2022-11-23T19:04:47.871Z,99998.53
2022-11-23T19:07:14.869Z,99996.03
2022-11-23T19:09:41.552Z,100008.63
2022-11-23T19:12:10.502Z,100007.59
2022-11-23T19:14:37.133Z,100012.34
2022-11-23T19:17:06.024Z,99998.97
2022-11-23T19:19:32.731Z,100012.09
2022-11-23T19:22:01.744Z,100017.22
2022-11-23T19:24:31.014Z,100015.50
2022-11-23T19:26:59.964Z,100021.38
2022-11-23T19:29:26.989Z,100033.97
2022-11-23T19:31:55.111Z,100027.59
2022-11-23T19:34:24.084Z,100037.00
2022-11-23T19:36:50.819Z,100037.88
2022-11-23T19:39:17.429Z,100031.56
2022-11-23T19:41:44.079Z,100024.09
2022-11-23T19:44:10.664Z,100021.97
2022-11-23T19:46:37.428Z,100036.94
2022-11-23T19:49:04.876Z,100029.88
2022-11-23T19:51:31.638Z,100040.25
2022-11-23T19:53:58.413Z,100038.16
2022-11-23T19:56:28.918Z,100048.72
2022-11-23T19:58:59.904Z,100054.47
2022-11-23T20:01:34.344Z,100050.63
2022-11-23T20:04:08.775Z,100054.34
2022-11-23T20:06:44.141Z,100083.06
2022-11-23T20:09:21.087Z,100066.50
2022-11-23T20:11:50.955Z,100069.78
2022-11-23T20:14:18.234Z,100063.50
2022-11-23T20:16:44.798Z,100081.19
2022-11-23T20:19:11.736Z,100053.81
2022-11-23T20:21:38.426Z,100076.22
2022-11-23T20:24:11.607Z,100090.50
2022-11-23T20:26:38.302Z,100094.75
2022-11-23T20:29:06.087Z,100086.81
2022-11-23T20:31:33.531Z,100109.75
2022-11-23T20:34:00.915Z,100099.91
2022-11-23T20:36:30.179Z,100104.88
2022-11-23T20:38:57.244Z,100109.75
2022-11-23T20:41:28.707Z,100105.06
2022-11-23T20:43:57.903Z,100109.34
2022-11-23T20:46:53.743Z,100116.94
2022-11-23T20:49:13.273Z,100102.25
2022-11-23T20:51:39.953Z,100111.38
2022-11-23T20:54:06.498Z,100125.34
2022-11-23T20:56:33.228Z,100109.66
2022-11-23T20:59:00.376Z,100112.53
2022-11-23T21:01:28.024Z,100123.94
2022-11-23T21:03:59.182Z,100131.94
2022-11-23T21:06:28.808Z,100125.09
2022-11-23T21:08:57.770Z,100131.66
2022-11-23T21:11:47.508Z,100137.09
2022-11-23T21:14:18.017Z,100142.53
2022-11-23T21:16:55.602Z,100139.13
2022-11-23T21:19:24.717Z,100128.84
2022-11-23T21:21:51.527Z,100137.41
2022-11-23T21:24:21.395Z,100136.16
2022-11-23T21:26:48.477Z,100156.25
2022-11-23T21:29:18.680Z,100140.00
2022-11-23T21:31:49.112Z,100151.81
2022-11-23T21:34:23.611Z,100146.22
2022-11-23T21:36:53.441Z,100155.00
2022-11-23T21:39:20.846Z,100169.97
2022-11-23T21:41:50.074Z,100181.69
2022-11-23T21:44:17.434Z,100173.13
2022-11-23T21:46:44.070Z,100179.09
2022-11-23T21:49:11.154Z,100173.28
2022-11-23T21:51:42.596Z,100174.00
2022-11-23T21:54:13.860Z,100182.25
2022-11-23T21:56:43.328Z,100168.41
2022-11-23T21:59:10.240Z,100188.97
2022-11-23T22:01:37.808Z,100201.84
2022-11-23T22:04:08.883Z,100187.13
2022-11-23T22:06:36.464Z,100205.25
2022-11-23T22:09:05.003Z,100182.88
2022-11-23T22:11:34.049Z,100197.41
2022-11-23T22:14:04.723Z,100196.72
2022-11-23T22:16:36.316Z,100199.44
2022-11-23T22:19:03.878Z,100213.13
2022-11-23T22:21:35.692Z,100216.38
2022-11-23T22:24:03.494Z,100215.41
2022-11-23T22:26:30.128Z,100217.41
2022-11-23T22:28:57.780Z,100224.38
2022-11-23T22:31:30.228Z,100211.50
2022-11-23T22:33:56.787Z,100227.66
2022-11-23T22:36:24.405Z,100222.38
2022-11-23T22:39:01.612Z,100234.66
2022-11-23T22:41:29.997Z,100233.69
2022-11-23T22:43:56.952Z,100232.69
2022-11-23T22:46:27.384Z,100246.53
2022-11-23T22:48:59.408Z,100255.97
2022-11-23T22:51:28.901Z,100244.84
2022-11-23T22:53:57.518Z,100240.94
2022-11-23T22:56:27.678Z,100250.25
2022-11-23T22:58:57.351Z,100260.53
2022-11-23T23:01:26.813Z,100261.25
2022-11-23T23:03:58.150Z,100259.53
2022-11-23T23:06:26.999Z,100272.13
2022-11-23T23:08:58.194Z,100272.53
2022-11-23T23:11:26.624Z,100268.84
2022-11-23T23:13:53.695Z,100273.94
2022-11-23T23:16:20.803Z,100263.69
2022-11-23T23:18:47.562Z,100274.56
2022-11-23T23:21:21.633Z,100291.97
2022-11-23T23:23:50.062Z,100291.97
2022-11-23T23:26:19.185Z,100294.69
2022-11-23T23:28:46.237Z,100293.84
2022-11-23T23:31:16.187Z,100288.41
2022-11-23T23:33:44.014Z,100286.53
2022-11-23T23:36:13.411Z,100294.69
2022-11-23T23:38:40.553Z,100296.69
2022-11-23T23:41:11.385Z,100290.72
2022-11-23T23:43:40.734Z,100295.00
2022-11-23T23:46:10.619Z,100296.00
2022-11-23T23:48:38.836Z,100293.59
2022-11-23T23:51:11.087Z,100313.56
2022-11-23T23:53:37.694Z,100297.13
2022-11-23T23:56:07.480Z,100295.00
2022-11-23T23:58:34.734Z,100300.69
